sensor_id;sensor_type;location;lat;lon;timestamp;pressure;altitude;pressure_sealevel;temperature;humidity
3428;BME280;1727;42.624;23.406;2022-12-18T00:01:23;95599.38;;;8.94;100.00
3428;BME280;1727;42.624;23.406;2022-12-18T00:03:51;95607.84;;;8.85;100.00
3428;BME280;1727;42.624;23.406;2022-12-18T00:06:20;95619.56;;;8.80;100.00
3428;BME280;1727;42.624;23.406;2022-12-18T00:08:48;95626.34;;;8.69;100.00
3428;BME280;1727;42.624;23.406;2022-12-18T00:11:16;95628.78;;;8.73;100.00
3428;BME280;1727;42.624;23.406;2022-12-18T00:13:46;95619.81;;;8.62;100.00
3428;BME280;1727;42.624;23.406;2022-12-18T00:16:15;95630.16;;;8.51;100.00
3428;BME280;1727;42.624;23.406;2022-12-18T00:18:43;95633.63;;;8.52;100.00
3428;BME280;1727;42.624;23.406;2022-12-18T00:21:12;95628.50;;;8.50;100.00
3428;BME280;1727;42.624;23.406;2022-12-18T00:23:42;95638.09;;;8.50;100.00
3428;BME280;1727;42.624;23.406;2022-12-18T00:26:12;95638.63;;;8.42;100.00
3428;BME280;1727;42.624;23.406;2022-12-18T00:28:40;95653.00;;;8.35;100.00
3428;BME280;1727;42.624;23.406;2022-12-18T00:31:09;95639.16;;;8.33;100.00
3428;BME280;1727;42.624;23.406;2022-12-18T00:33:37;95639.75;;;8.24;100.00
3428;BME280;1727;42.624;23.406;2022-12-18T00:36:05;95646.22;;;8.18;100.00
3428;BME280;1727;42.624;23.406;2022-12-18T00:38:32;95652.28;;;8.19;100.00
3428;BME280;1727;42.624;23.406;2022-12-18T00:41:01;95650.50;;;8.19;100.00
3428;BME280;1727;42.624;23.406;2022-12-18T00:43:28;95651.88;;;8.25;100.00
3428;BME280;1727;42.624;23.406;2022-12-18T00:45:54;95658.88;;;8.24;100.00
3428;BME280;1727;42.624;23.406;2022-12-18T00:48:21;95661.06;;;8.18;100.00
3428;BME280;1727;42.624;23.406;2022-12-18T00:50:48;95661.16;;;8.16;100.00
3428;BME280;1727;42.624;23.406;2022-12-18T00:53:15;95672.00;;;8.10;100.00
3428;BME280;1727;42.624;23.406;2022-12-18T00:55:42;95671.91;;;8.12;100.00
3428;BME280;1727;42.624;23.406;2022-12-18T00:58:12;95676.94;;;8.00;100.00
3428;BME280;1727;42.624;23.406;2022-12-18T01:00:39;95671.06;;;7.97;100.00
3428;BME280;1727;42.624;23.406;2022-12-18T01:03:06;95672.00;;;7.96;100.00
3428;BME280;1727;42.624;23.406;2022-12-18T01:05:33;95683.44;;;8.07;100.00
3428;BME280;1727;42.624;23.406;2022-12-18T01:07:59;95687.19;;;8.18;100.00
3428;BME280;1727;42.624;23.406;2022-12-18T01:10:26;95685.47;;;8.31;100.00
3428;BME280;1727;42.624;23.406;2022-12-18T01:12:53;95688.50;;;8.39;100.00
3428;BME280;1727;42.624;23.406;2022-12-18T01:15:21;95689.78;;;8.46;100.00
3428;BME280;1727;42.624;23.406;2022-12-18T01:17:48;95689.88;;;8.45;100.00
3428;BME280;1727;42.624;23.406;2022-12-18T01:20:15;95695.22;;;8.43;100.00
3428;BME280;1727;42.624;23.406;2022-12-18T01:22:41;95692.41;;;8.46;100.00
3428;BME280;1727;42.624;23.406;2022-12-18T01:25:08;95700.97;;;8.48;100.00
3428;BME280;1727;42.624;23.406;2022-12-18T01:27:35;95700.59;;;8.54;100.00
3428;BME280;1727;42.624;23.406;2022-12-18T01:30:03;95703.41;;;8.51;100.00
3428;BME280;1727;42.624;23.406;2022-12-18T01:32:31;95706.75;;;8.53;100.00
3428;BME280;1727;42.624;23.406;2022-12-18T01:34:58;95716.91;;;8.58;100.00
3428;BME280;1727;42.624;23.406;2022-12-18T01:37:25;95712.91;;;8.52;100.00
3428;BME280;1727;42.624;23.406;2022-12-18T01:39:52;95711.84;;;8.42;100.00
3428;BME280;1727;42.624;23.406;2022-12-18T01:42:19;95716.31;;;8.26;99.87
3428;BME280;1727;42.624;23.406;2022-12-18T01:44:59;95717.91;;;8.14;100.00
3428;BME280;1727;42.624;23.406;2022-12-18T01:47:30;95713.03;;;8.08;100.00
3428;BME280;1727;42.624;23.406;2022-12-18T01:50:01;95724.72;;;8.02;100.00
3428;BME280;1727;42.624;23.406;2022-12-18T01:52:31;95718.59;;;7.89;100.00
3428;BME280;1727;42.624;23.406;2022-12-18T01:54:59;95724.34;;;7.80;100.00
3428;BME280;1727;42.624;23.406;2022-12-18T01:57:28;95728.81;;;7.78;100.00
3428;BME280;1727;42.624;23.406;2022-12-18T01:59:59;95728.19;;;7.74;100.00
3428;BME280;1727;42.624;23.406;2022-12-18T02:02:28;95729.47;;;7.67;100.00
3428;BME280;1727;42.624;23.406;2022-12-18T02:04:55;95727.91;;;7.65;100.00
3428;BME280;1727;42.624;23.406;2022-12-18T02:07:29;95728.81;;;7.64;100.00
3428;BME280;1727;42.624;23.406;2022-12-18T02:10:01;95724.41;;;7.50;100.00
3428;BME280;1727;42.624;23.406;2022-12-18T02:12:34;95748.66;;;7.38;100.00
3428;BME280;1727;42.624;23.406;2022-12-18T02:15:17;95739.59;;;7.29;100.00
3428;BME280;1727;42.624;23.406;2022-12-18T02:17:48;95743.97;;;7.29;100.00
3428;BME280;1727;42.624;23.406;2022-12-18T02:20:21;95745.00;;;7.26;100.00
3428;BME280;1727;42.624;23.406;2022-12-18T02:23:08;95738.38;;;7.35;100.00
3428;BME280;1727;42.624;23.406;2022-12-18T02:25:58;95746.13;;;7.51;100.00
3428;BME280;1727;42.624;23.406;2022-12-18T02:28:32;95745.53;;;7.61;100.00
3428;BME280;1727;42.624;23.406;2022-12-18T02:31:02;95755.59;;;7.53;100.00
3428;BME280;1727;42.624;23.406;2022-12-18T02:33:31;95758.25;;;7.52;100.00
3428;BME280;1727;42.624;23.406;2022-12-18T02:36:00;95761.75;;;7.52;100.00
3428;BME280;1727;42.624;23.406;2022-12-18T02:38:28;95750.75;;;7.61;100.00
3428;BME280;1727;42.624;23.406;2022-12-18T02:40:58;95752.06;;;7.68;100.00
3428;BME280;1727;42.624;23.406;2022-12-18T02:43:25;95747.31;;;7.75;100.00
3428;BME280;1727;42.624;23.406;2022-12-18T02:45:55;95750.28;;;7.69;100.00
3428;BME280;1727;42.624;23.406;2022-12-18T02:48:24;95753.94;;;7.66;100.00
3428;BME280;1727;42.624;23.406;2022-12-18T02:50:59;95769.41;;;7.69;100.00
3428;BME280;1727;42.624;23.406;2022-12-18T02:53:33;95763.91;;;7.74;100.00
3428;BME280;1727;42.624;23.406;2022-12-18T02:56:10;95770.38;;;7.83;100.00
3428;BME280;1727;42.624;23.406;2022-12-18T02:58:45;95767.91;;;7.80;99.60
3428;BME280;1727;42.624;23.406;2022-12-18T03:01:18;95767.44;;;7.59;99.53
3428;BME280;1727;42.624;23.406;2022-12-18T03:03:48;95774.03;;;7.50;100.00
3428;BME280;1727;42.624;23.406;2022-12-18T03:06:21;95776.44;;;7.39;100.00
3428;BME280;1727;42.624;23.406;2022-12-18T03:08:56;95779.31;;;7.34;100.00
3428;BME280;1727;42.624;23.406;2022-12-18T03:11:29;95776.50;;;7.23;100.00
3428;BME280;1727;42.624;23.406;2022-12-18T03:14:15;95786.00;;;7.24;100.00
3428;BME280;1727;42.624;23.406;2022-12-18T03:16:44;95786.69;;;7.12;100.00
3428;BME280;1727;42.624;23.406;2022-12-18T03:19:15;95777.72;;;7.02;100.00
3428;BME280;1727;42.624;23.406;2022-12-18T03:21:45;95794.03;;;7.05;100.00
3428;BME280;1727;42.624;23.406;2022-12-18T03:24:14;95800.19;;;7.04;100.00
3428;BME280;1727;42.624;23.406;2022-12-18T03:26:47;95791.88;;;6.98;100.00
3428;BME280;1727;42.624;23.406;2022-12-18T03:29:18;95803.63;;;7.05;100.00
3428;BME280;1727;42.624;23.406;2022-12-18T03:31:51;95807.06;;;7.05;100.00
3428;BME280;1727;42.624;23.406;2022-12-18T03:34:23;95813.66;;;6.97;100.00
3428;BME280;1727;42.624;23.406;2022-12-18T03:36:52;95810.53;;;6.90;100.00
3428;BME280;1727;42.624;23.406;2022-12-18T03:39:19;95809.59;;;6.91;100.00
3428;BME280;1727;42.624;23.406;2022-12-18T03:41:52;95811.19;;;6.94;100.00
3428;BME280;1727;42.624;23.406;2022-12-18T03:44:28;95819.19;;;6.91;100.00
3428;BME280;1727;42.624;23.406;2022-12-18T03:47:01;95836.53;;;6.92;100.00
3428;BME280;1727;42.624;23.406;2022-12-18T03:49:35;95850.09;;;6.98;100.00
3428;BME280;1727;42.624;23.406;2022-12-18T03:52:06;95837.38;;;7.08;100.00
3428;BME280;1727;42.624;23.406;2022-12-18T03:54:36;95831.50;;;7.04;100.00
3428;BME280;1727;42.624;23.406;2022-12-18T03:57:11;95842.38;;;6.97;99.96
3428;BME280;1727;42.624;23.406;2022-12-18T03:59:40;95835.69;;;6.91;100.00
3428;BME280;1727;42.624;23.406;2022-12-18T04:02:07;95818.72;;;6.68;100.00
3428;BME280;1727;42.624;23.406;2022-12-18T04:04:35;95821.63;;;6.62;100.00
3428;BME280;1727;42.624;23.406;2022-12-18T04:07:04;95829.63;;;6.59;100.00
3428;BME280;1727;42.624;23.406;2022-12-18T04:09:33;95832.56;;;6.53;100.00
3428;BME280;1727;42.624;23.406;2022-12-18T04:12:00;95827.53;;;6.50;100.00
3428;BME280;1727;42.624;23.406;2022-12-18T04:14:28;95846.28;;;6.57;100.00
3428;BME280;1727;42.624;23.406;2022-12-18T04:16:55;95840.06;;;6.59;100.00
3428;BME280;1727;42.624;23.406;2022-12-18T04:19:22;95844.78;;;6.52;100.00
3428;BME280;1727;42.624;23.406;2022-12-18T04:21:51;95840.97;;;6.42;100.00
3428;BME280;1727;42.624;23.406;2022-12-18T04:24:18;95847.72;;;6.46;100.00
3428;BME280;1727;42.624;23.406;2022-12-18T04:26:45;95855.78;;;6.42;100.00
3428;BME280;1727;42.624;23.406;2022-12-18T04:29:11;95848.44;;;6.33;100.00
3428;BME280;1727;42.624;23.406;2022-12-18T04:31:40;95860.03;;;6.27;100.00
3428;BME280;1727;42.624;23.406;2022-12-18T04:34:06;95873.81;;;6.29;100.00
3428;BME280;1727;42.624;23.406;2022-12-18T04:36:33;95863.78;;;6.39;100.00
3428;BME280;1727;42.624;23.406;2022-12-18T04:39:00;95861.00;;;6.42;100.00
3428;BME280;1727;42.624;23.406;2022-12-18T04:41:27;95871.81;;;6.34;100.00
3428;BME280;1727;42.624;23.406;2022-12-18T04:43:53;95878.19;;;6.29;99.79
3428;BME280;1727;42.624;23.406;2022-12-18T04:46:20;95885.16;;;6.28;100.00
3428;BME280;1727;42.624;23.406;2022-12-18T04:48:48;95887.34;;;6.20;100.00
3428;BME280;1727;42.624;23.406;2022-12-18T04:51:15;95884.03;;;6.16;100.00
3428;BME280;1727;42.624;23.406;2022-12-18T04:53:42;95895.81;;;6.24;100.00
3428;BME280;1727;42.624;23.406;2022-12-18T04:56:10;95894.38;;;6.18;99.56
3428;BME280;1727;42.624;23.406;2022-12-18T04:58:38;95895.72;;;6.09;98.95
3428;BME280;1727;42.624;23.406;2022-12-18T05:01:06;95901.38;;;6.00;98.83
3428;BME280;1727;42.624;23.406;2022-12-18T05:03:34;95893.47;;;6.02;98.77
3428;BME280;1727;42.624;23.406;2022-12-18T05:06:03;95903.28;;;5.97;98.46
3428;BME280;1727;42.624;23.406;2022-12-18T05:08:30;95906.34;;;5.87;98.52
3428;BME280;1727;42.624;23.406;2022-12-18T05:11:01;95917.59;;;5.88;99.09
3428;BME280;1727;42.624;23.406;2022-12-18T05:13:28;95917.25;;;5.77;99.14
3428;BME280;1727;42.624;23.406;2022-12-18T05:15:55;95930.28;;;5.77;99.14
3428;BME280;1727;42.624;23.406;2022-12-18T05:18:23;95925.63;;;5.83;98.13
3428;BME280;1727;42.624;23.406;2022-12-18T05:20:51;95929.09;;;5.84;99.00
3428;BME280;1727;42.624;23.406;2022-12-18T05:23:20;95937.66;;;5.86;98.89
3428;BME280;1727;42.624;23.406;2022-12-18T05:25:51;95934.13;;;5.87;98.49
3428;BME280;1727;42.624;23.406;2022-12-18T05:28:18;95940.28;;;5.86;97.86
3428;BME280;1727;42.624;23.406;2022-12-18T05:30:47;95942.19;;;5.82;97.47
3428;BME280;1727;42.624;23.406;2022-12-18T05:33:14;95951.44;;;5.71;97.51
3428;BME280;1727;42.624;23.406;2022-12-18T05:35:42;95949.50;;;5.74;98.39
3428;BME280;1727;42.624;23.406;2022-12-18T05:38:09;95951.44;;;5.71;99.71
3428;BME280;1727;42.624;23.406;2022-12-18T05:40:37;95954.34;;;5.65;98.04
3428;BME280;1727;42.624;23.406;2022-12-18T05:43:03;95956.63;;;5.71;98.65
3428;BME280;1727;42.624;23.406;2022-12-18T05:45:32;95960.63;;;5.78;99.15
3428;BME280;1727;42.624;23.406;2022-12-18T05:47:58;95956.13;;;5.81;98.36
3428;BME280;1727;42.624;23.406;2022-12-18T05:50:25;95961.09;;;5.86;98.08
3428;BME280;1727;42.624;23.406;2022-12-18T05:52:52;95972.19;;;6.08;98.71
3428;BME280;1727;42.624;23.406;2022-12-18T05:55:18;95969.22;;;7.62;100.00
3428;BME280;1727;42.624;23.406;2022-12-18T05:57:47;95980.44;;;8.70;93.08
3428;BME280;1727;42.624;23.406;2022-12-18T06:00:14;96004.47;;;8.47;87.25
3428;BME280;1727;42.624;23.406;2022-12-18T06:02:42;96009.44;;;8.05;85.94
3428;BME280;1727;42.624;23.406;2022-12-18T06:05:08;95999.78;;;7.76;86.12
3428;BME280;1727;42.624;23.406;2022-12-18T06:07:36;95997.34;;;7.41;87.62
3428;BME280;1727;42.624;23.406;2022-12-18T06:10:03;95992.38;;;7.05;89.69
3428;BME280;1727;42.624;23.406;2022-12-18T06:12:30;96000.78;;;6.77;91.14
3428;BME280;1727;42.624;23.406;2022-12-18T06:15:00;96003.59;;;6.57;91.88
3428;BME280;1727;42.624;23.406;2022-12-18T06:17:27;96002.81;;;6.55;93.23
3428;BME280;1727;42.624;23.406;2022-12-18T06:19:55;96008.50;;;6.46;96.02
3428;BME280;1727;42.624;23.406;2022-12-18T06:22:22;96004.06;;;6.48;94.20
3428;BME280;1727;42.624;23.406;2022-12-18T06:24:49;96005.38;;;6.39;93.38
3428;BME280;1727;42.624;23.406;2022-12-18T06:27:16;96017.66;;;6.37;94.09
3428;BME280;1727;42.624;23.406;2022-12-18T06:29:42;96026.66;;;6.30;93.43
3428;BME280;1727;42.624;23.406;2022-12-18T06:32:11;96019.56;;;6.16;92.16
3428;BME280;1727;42.624;23.406;2022-12-18T06:34:37;96031.19;;;6.09;92.71
3428;BME280;1727;42.624;23.406;2022-12-18T06:37:07;96032.47;;;6.01;93.26
3428;BME280;1727;42.624;23.406;2022-12-18T06:39:34;96036.16;;;5.97;93.25
3428;BME280;1727;42.624;23.406;2022-12-18T06:42:03;96040.97;;;6.04;94.70
3428;BME280;1727;42.624;23.406;2022-12-18T06:44:30;96044.16;;;6.11;94.44
3428;BME280;1727;42.624;23.406;2022-12-18T06:46:56;96039.31;;;6.20;94.59
3428;BME280;1727;42.624;23.406;2022-12-18T06:49:24;96043.91;;;6.15;95.04
3428;BME280;1727;42.624;23.406;2022-12-18T06:51:51;96043.16;;;6.13;96.07
3428;BME280;1727;42.624;23.406;2022-12-18T06:54:18;96041.91;;;6.03;94.27
3428;BME280;1727;42.624;23.406;2022-12-18T06:56:45;96047.25;;;6.00;95.71
3428;BME280;1727;42.624;23.406;2022-12-18T06:59:12;96039.25;;;5.86;94.93
3428;BME280;1727;42.624;23.406;2022-12-18T07:01:39;96039.41;;;5.83;93.84
3428;BME280;1727;42.624;23.406;2022-12-18T07:04:07;96044.47;;;5.86;94.63
3428;BME280;1727;42.624;23.406;2022-12-18T07:06:35;96042.00;;;5.83;93.93
3428;BME280;1727;42.624;23.406;2022-12-18T07:09:02;96047.28;;;5.81;94.93
3428;BME280;1727;42.624;23.406;2022-12-18T07:11:28;96051.06;;;5.74;93.84
3428;BME280;1727;42.624;23.406;2022-12-18T07:13:55;96046.84;;;5.72;93.68
3428;BME280;1727;42.624;23.406;2022-12-18T07:16:25;96048.41;;;5.76;94.90
3428;BME280;1727;42.624;23.406;2022-12-18T07:18:54;96061.50;;;5.74;93.21
3428;BME280;1727;42.624;23.406;2022-12-18T07:21:23;96059.81;;;5.73;93.46
3428;BME280;1727;42.624;23.406;2022-12-18T07:23:51;96066.50;;;5.79;94.80
3428;BME280;1727;42.624;23.406;2022-12-18T07:26:20;96059.25;;;5.67;94.64
3428;BME280;1727;42.624;23.406;2022-12-18T07:28:47;96073.81;;;5.71;94.58
3428;BME280;1727;42.624;23.406;2022-12-18T07:31:16;96074.66;;;5.71;94.60
3428;BME280;1727;42.624;23.406;2022-12-18T07:33:44;96067.69;;;5.72;93.61
3428;BME280;1727;42.624;23.406;2022-12-18T07:36:11;96072.91;;;5.72;94.31
3428;BME280;1727;42.624;23.406;2022-12-18T07:38:38;96084.31;;;5.69;94.95
3428;BME280;1727;42.624;23.406;2022-12-18T07:41:08;96083.88;;;5.97;100.00
3428;BME280;1727;42.624;23.406;2022-12-18T07:43:36;96093.88;;;5.87;96.10
3428;BME280;1727;42.624;23.406;2022-12-18T07:46:03;96096.41;;;5.89;94.17
3428;BME280;1727;42.624;23.406;2022-12-18T07:48:30;96087.81;;;5.87;93.31
3428;BME280;1727;42.624;23.406;2022-12-18T07:50:58;96100.47;;;5.76;92.66
3428;BME280;1727;42.624;23.406;2022-12-18T07:53:24;96100.63;;;5.73;94.56
3428;BME280;1727;42.624;23.406;2022-12-18T07:55:55;96095.41;;;5.73;94.53
3428;BME280;1727;42.624;23.406;2022-12-18T07:58:23;96100.63;;;5.73;92.80
3428;BME280;1727;42.624;23.406;2022-12-18T08:00:50;96100.47;;;5.76;93.39
3428;BME280;1727;42.624;23.406;2022-12-18T08:03:18;96113.31;;;5.80;91.99
3428;BME280;1727;42.624;23.406;2022-12-18T08:05:45;96114.41;;;5.75;92.93
3428;BME280;1727;42.624;23.406;2022-12-18T08:08:11;96115.25;;;5.75;92.23
3428;BME280;1727;42.624;23.406;2022-12-18T08:10:38;96134.56;;;5.71;92.15
3428;BME280;1727;42.624;23.406;2022-12-18T08:13:05;96141.19;;;5.78;93.11
3428;BME280;1727;42.624;23.406;2022-12-18T08:15:34;96135.84;;;5.81;91.72
3428;BME280;1727;42.624;23.406;2022-12-18T08:18:00;96135.91;;;5.80;91.45
3428;BME280;1727;42.624;23.406;2022-12-18T08:20:27;96137.00;;;5.74;92.04
3428;BME280;1727;42.624;23.406;2022-12-18T08:22:54;96134.00;;;5.65;92.09
3428;BME280;1727;42.624;23.406;2022-12-18T08:25:23;96139.91;;;5.49;92.57
3428;BME280;1727;42.624;23.406;2022-12-18T08:27:50;96149.41;;;5.50;92.23
3428;BME280;1727;42.624;23.406;2022-12-18T08:30:17;96153.94;;;5.45;92.70
3428;BME280;1727;42.624;23.406;2022-12-18T08:32:45;96147.81;;;5.46;91.86
3428;BME280;1727;42.624;23.406;2022-12-18T08:35:12;96144.44;;;5.44;92.70
3428;BME280;1727;42.624;23.406;2022-12-18T08:37:38;96153.16;;;5.43;92.04
3428;BME280;1727;42.624;23.406;2022-12-18T08:40:07;96149.88;;;5.40;92.73
3428;BME280;1727;42.624;23.406;2022-12-18T08:42:34;96160.47;;;5.35;92.68
3428;BME280;1727;42.624;23.406;2022-12-18T08:45:18;96144.66;;;5.40;92.74
3428;BME280;1727;42.624;23.406;2022-12-18T08:47:46;96158.00;;;5.32;92.22
3428;BME280;1727;42.624;23.406;2022-12-18T08:50:13;96145.38;;;5.43;92.67
3428;BME280;1727;42.624;23.406;2022-12-18T08:52:40;96146.25;;;5.63;94.82
3428;BME280;1727;42.624;23.406;2022-12-18T08:55:08;96143.56;;;5.64;93.96
3428;BME280;1727;42.624;23.406;2022-12-18T08:57:35;96145.59;;;5.57;91.59
3428;BME280;1727;42.624;23.406;2022-12-18T09:00:02;96160.47;;;5.55;92.86
3428;BME280;1727;42.624;23.406;2022-12-18T09:02:29;96138.06;;;5.51;92.81
3428;BME280;1727;42.624;23.406;2022-12-18T09:04:57;96155.53;;;5.49;92.14
3428;BME280;1727;42.624;23.406;2022-12-18T09:07:24;96161.50;;;5.51;91.83
3428;BME280;1727;42.624;23.406;2022-12-18T09:09:51;96146.66;;;5.53;91.77
3428;BME280;1727;42.624;23.406;2022-12-18T09:12:18;96144.84;;;5.55;93.45
3428;BME280;1727;42.624;23.406;2022-12-18T09:14:45;96148.06;;;5.60;92.17
3428;BME280;1727;42.624;23.406;2022-12-18T09:17:11;96150.38;;;5.67;93.46
3428;BME280;1727;42.624;23.406;2022-12-18T09:19:38;96151.31;;;5.66;91.06
3428;BME280;1727;42.624;23.406;2022-12-18T09:22:06;96158.19;;;5.67;91.84
3428;BME280;1727;42.624;23.406;2022-12-18T09:24:34;96146.41;;;5.78;97.00
3428;BME280;1727;42.624;23.406;2022-12-18T09:27:01;96156.09;;;5.75;90.26
3428;BME280;1727;42.624;23.406;2022-12-18T09:29:28;96156.59;;;5.83;90.28
3428;BME280;1727;42.624;23.406;2022-12-18T09:31:55;96153.22;;;5.81;91.12
3428;BME280;1727;42.624;23.406;2022-12-18T09:34:21;96155.28;;;5.93;93.33
3428;BME280;1727;42.624;23.406;2022-12-18T09:36:48;96141.56;;;6.08;92.83
3428;BME280;1727;42.624;23.406;2022-12-18T09:39:16;96161.50;;;6.09;91.59
3428;BME280;1727;42.624;23.406;2022-12-18T09:41:45;96162.41;;;6.08;90.34
3428;BME280;1727;42.624;23.406;2022-12-18T09:44:27;96163.19;;;6.28;90.73
3428;BME280;1727;42.624;23.406;2022-12-18T09:47:05;96167.44;;;6.30;88.05
3428;BME280;1727;42.624;23.406;2022-12-18T09:49:38;96166.72;;;6.27;88.63
3428;BME280;1727;42.624;23.406;2022-12-18T09:52:10;96163.13;;;6.29;86.44
3428;BME280;1727;42.624;23.406;2022-12-18T09:54:40;96155.00;;;6.35;88.35
3428;BME280;1727;42.624;23.406;2022-12-18T09:57:14;96158.03;;;6.45;85.32
3428;BME280;1727;42.624;23.406;2022-12-18T09:59:42;96159.88;;;6.43;85.59
3428;BME280;1727;42.624;23.406;2022-12-18T10:02:17;96164.78;;;6.49;85.65
3428;BME280;1727;42.624;23.406;2022-12-18T10:04:53;96167.25;;;6.52;85.95
3428;BME280;1727;42.624;23.406;2022-12-18T10:07:24;96158.44;;;6.55;85.66
3428;BME280;1727;42.624;23.406;2022-12-18T10:10:02;96163.41;;;6.59;87.56
3428;BME280;1727;42.624;23.406;2022-12-18T10:12:40;96169.13;;;6.67;85.34
3428;BME280;1727;42.624;23.406;2022-12-18T10:15:15;96156.00;;;6.69;85.76
3428;BME280;1727;42.624;23.406;2022-12-18T10:17:50;96162.66;;;6.92;86.74
3428;BME280;1727;42.624;23.406;2022-12-18T10:20:22;96172.75;;;6.99;83.20
3428;BME280;1727;42.624;23.406;2022-12-18T10:22:58;96177.78;;;6.85;80.58
3428;BME280;1727;42.624;23.406;2022-12-18T10:25:34;96180.25;;;6.71;81.88
3428;BME280;1727;42.624;23.406;2022-12-18T10:28:10;96172.84;;;6.62;82.62
3428;BME280;1727;42.624;23.406;2022-12-18T10:30:38;96162.09;;;6.50;85.27
3428;BME280;1727;42.624;23.406;2022-12-18T10:33:10;96174.75;;;6.41;82.45
3428;BME280;1727;42.624;23.406;2022-12-18T10:35:41;96174.41;;;6.30;83.27
3428;BME280;1727;42.624;23.406;2022-12-18T10:38:21;96165.97;;;6.25;82.66
3428;BME280;1727;42.624;23.406;2022-12-18T10:40:52;96162.94;;;6.15;82.99
3428;BME280;1727;42.624;23.406;2022-12-18T10:43:21;96165.28;;;6.02;83.03
3428;BME280;1727;42.624;23.406;2022-12-18T10:46:12;96157.13;;;5.91;83.19
3428;BME280;1727;42.624;23.406;2022-12-18T10:48:52;96155.13;;;5.96;83.90
3428;BME280;1727;42.624;23.406;2022-12-18T10:51:21;96154.63;;;6.07;85.63
3428;BME280;1727;42.624;23.406;2022-12-18T10:53:53;96158.38;;;6.20;87.03
3428;BME280;1727;42.624;23.406;2022-12-18T10:56:24;96157.00;;;6.30;86.40
3428;BME280;1727;42.624;23.406;2022-12-18T10:58:57;96155.53;;;6.25;83.84
3428;BME280;1727;42.624;23.406;2022-12-18T11:01:25;96149.94;;;6.32;84.62
3428;BME280;1727;42.624;23.406;2022-12-18T11:04:07;96153.63;;;6.28;85.13
3428;BME280;1727;42.624;23.406;2022-12-18T11:06:52;96150.78;;;6.33;84.43
3428;BME280;1727;42.624;23.406;2022-12-18T11:09:21;96159.69;;;6.29;84.81
3428;BME280;1727;42.624;23.406;2022-12-18T11:11:50;96160.66;;;6.26;84.30
3428;BME280;1727;42.624;23.406;2022-12-18T11:14:21;96155.84;;;6.18;84.35
3428;BME280;1727;42.624;23.406;2022-12-18T11:16:50;96163.78;;;6.15;84.45
3428;BME280;1727;42.624;23.406;2022-12-18T11:19:30;96163.19;;;6.28;84.41
3428;BME280;1727;42.624;23.406;2022-12-18T11:21:58;96153.56;;;6.30;85.20
3428;BME280;1727;42.624;23.406;2022-12-18T11:24:29;96155.22;;;6.31;85.19
3428;BME280;1727;42.624;23.406;2022-12-18T11:27:00;96146.66;;;6.29;82.92
3428;BME280;1727;42.624;23.406;2022-12-18T11:29:34;96153.41;;;6.33;80.67
3428;BME280;1727;42.624;23.406;2022-12-18T11:32:32;96163.78;;;6.15;79.11
3428;BME280;1727;42.624;23.406;2022-12-18T11:35:13;96168.16;;;6.15;81.39
3428;BME280;1727;42.624;23.406;2022-12-18T11:37:44;96169.94;;;6.14;81.11
3428;BME280;1727;42.624;23.406;2022-12-18T11:40:15;96161.81;;;6.20;85.21
3428;BME280;1727;42.624;23.406;2022-12-18T11:42:48;96163.72;;;6.17;81.33
3428;BME280;1727;42.624;23.406;2022-12-18T11:45:27;96164.03;;;6.11;81.66
3428;BME280;1727;42.624;23.406;2022-12-18T11:47:59;96165.78;;;6.10;81.40
3428;BME280;1727;42.624;23.406;2022-12-18T11:50:33;96180.50;;;6.11;81.84
3428;BME280;1727;42.624;23.406;2022-12-18T11:53:10;96174.59;;;6.08;81.56
3428;BME280;1727;42.624;23.406;2022-12-18T11:55:41;96180.50;;;6.11;82.50
3428;BME280;1727;42.624;23.406;2022-12-18T11:58:20;96181.50;;;6.09;81.59
3428;BME280;1727;42.624;23.406;2022-12-18T12:00:56;96163.19;;;6.10;82.22
3428;BME280;1727;42.624;23.406;2022-12-18T12:03:50;96171.31;;;6.21;81.02
3428;BME280;1727;42.624;23.406;2022-12-18T12:06:26;96169.41;;;6.25;80.00
3428;BME280;1727;42.624;23.406;2022-12-18T12:09:04;96171.16;;;6.25;80.84
3428;BME280;1727;42.624;23.406;2022-12-18T12:11:42;96173.56;;;6.29;79.48
3428;BME280;1727;42.624;23.406;2022-12-18T12:14:26;96179.53;;;6.31;79.45
3428;BME280;1727;42.624;23.406;2022-12-18T12:16:58;96170.31;;;6.43;80.33
3428;BME280;1727;42.624;23.406;2022-12-18T12:19:37;96165.41;;;6.54;80.21
3428;BME280;1727;42.624;23.406;2022-12-18T12:22:13;96175.63;;;6.59;79.55
3428;BME280;1727;42.624;23.406;2022-12-18T12:24:53;96172.22;;;6.57;79.73
3428;BME280;1727;42.624;23.406;2022-12-18T12:27:29;96167.56;;;6.63;79.55
3428;BME280;1727;42.624;23.406;2022-12-18T12:30:16;96171.41;;;6.56;79.13
3428;BME280;1727;42.624;23.406;2022-12-18T12:33:05;96179.44;;;6.51;78.93
3428;BME280;1727;42.624;23.406;2022-12-18T12:35:46;96174.59;;;6.44;79.47
3428;BME280;1727;42.624;23.406;2022-12-18T12:38:20;96178.75;;;6.48;79.49
3428;BME280;1727;42.624;23.406;2022-12-18T12:40:52;96172.53;;;6.50;79.63
3428;BME280;1727;42.624;23.406;2022-12-18T12:43:28;96172.84;;;6.62;79.86
3428;BME280;1727;42.624;23.406;2022-12-18T12:46:00;96175.25;;;6.66;80.31
3428;BME280;1727;42.624;23.406;2022-12-18T12:48:35;96174.81;;;6.75;81.26
3428;BME280;1727;42.624;23.406;2022-12-18T12:51:10;96178.41;;;6.73;79.60
3428;BME280;1727;42.624;23.406;2022-12-18T12:53:39;96182.94;;;6.69;79.49
3428;BME280;1727;42.624;23.406;2022-12-18T12:56:08;96189.53;;;6.76;80.53
3428;BME280;1727;42.624;23.406;2022-12-18T12:58:41;96188.91;;;6.89;82.93
3428;BME280;1727;42.624;23.406;2022-12-18T13:01:20;96189.16;;;6.84;79.44
3428;BME280;1727;42.624;23.406;2022-12-18T13:03:55;96195.66;;;6.75;78.64
3428;BME280;1727;42.624;23.406;2022-12-18T13:06:32;96202.47;;;6.61;79.48
3428;BME280;1727;42.624;23.406;2022-12-18T13:09:03;96199.00;;;6.60;80.11
3428;BME280;1727;42.624;23.406;2022-12-18T13:11:34;96206.38;;;6.52;79.98
3428;BME280;1727;42.624;23.406;2022-12-18T13:14:26;96210.97;;;6.47;80.41
3428;BME280;1727;42.624;23.406;2022-12-18T13:20:10;96200.78;;;6.60;81.26
3428;BME280;1727;42.624;23.406;2022-12-18T13:22:41;96204.78;;;6.67;81.31
3428;BME280;1727;42.624;23.406;2022-12-18T13:25:31;96211.31;;;6.75;81.03
3428;BME280;1727;42.624;23.406;2022-12-18T13:28:02;96212.53;;;6.68;80.67
3428;BME280;1727;42.624;23.406;2022-12-18T13:30:46;96213.47;;;6.67;81.39
3428;BME280;1727;42.624;23.406;2022-12-18T13:36:26;96217.19;;;6.62;81.77
3428;BME280;1727;42.624;23.406;2022-12-18T13:39:21;96214.38;;;6.66;81.63
3428;BME280;1727;42.624;23.406;2022-12-18T13:41:50;96223.91;;;6.67;81.86